createdAt,value
2018-05-04T00:02:21.860Z,5.70
2018-05-04T00:04:51.245Z,5.60
2018-05-04T00:07:21.389Z,5.50
2018-05-04T00:09:51.592Z,5.50
2018-05-04T00:12:21.679Z,5.50
2018-05-04T00:14:51.359Z,5.90
2018-05-04T00:17:20.868Z,5.30
2018-05-04T00:19:51.188Z,5.30
2018-05-04T00:22:20.502Z,5.30
2018-05-04T00:24:50.151Z,5.30
2018-05-04T00:27:20.504Z,5.30
2018-05-04T00:29:49.774Z,5.30
2018-05-04T00:32:19.563Z,5.40
2018-05-04T00:34:50.323Z,5.40
2018-05-04T00:37:19.986Z,5.30
2018-05-04T00:39:49.263Z,5.40
2018-05-04T00:42:19.141Z,5.30
2018-05-04T00:44:49.339Z,5.30
2018-05-04T00:47:18.284Z,5.30
2018-05-04T00:49:48.573Z,5.10
2018-05-04T00:52:18.096Z,5.30
2018-05-04T00:54:47.421Z,5.30
2018-05-04T00:57:17.031Z,5.30
2018-05-04T00:59:47.204Z,5.20
2018-05-04T01:02:18.191Z,5.20
2018-05-04T01:04:48.098Z,5.10
2018-05-04T01:07:18.492Z,5.20
2018-05-04T01:09:47.794Z,5.20
2018-05-04T01:12:17.810Z,5.20
2018-05-04T01:14:48.443Z,5.30
2018-05-04T01:17:18.924Z,5.40
2018-05-04T01:19:48.537Z,5.30
2018-05-04T01:22:17.700Z,5.30
2018-05-04T01:24:46.612Z,5.30
2018-05-04T01:27:15.835Z,5.30
2018-05-04T01:29:44.769Z,5.30
2018-05-04T01:32:13.840Z,5.20
2018-05-04T01:34:43.815Z,5.20
2018-05-04T01:37:12.856Z,5.20
2018-05-04T01:39:41.810Z,5.10
2018-05-04T01:42:11.188Z,5.20
2018-05-04T01:44:40.703Z,5.20
2018-05-04T01:47:09.622Z,5.20
2018-05-04T01:49:38.864Z,5.20
2018-05-04T01:52:07.822Z,5.10
2018-05-04T01:54:37.503Z,5.00
2018-05-04T01:57:06.785Z,5.00
2018-05-04T01:59:35.707Z,5.00
2018-05-04T02:02:05.421Z,5.10
2018-05-04T02:04:34.869Z,5.30
2018-05-04T02:07:03.952Z,5.10
2018-05-04T02:09:33.660Z,5.00
2018-05-04T02:12:03.746Z,4.90
2018-05-04T02:14:33.435Z,4.90
2018-05-04T02:17:02.592Z,4.90
2018-05-04T02:19:32.110Z,4.90
2018-05-04T02:22:01.030Z,4.80
2018-05-04T02:24:30.183Z,4.70
2018-05-04T02:26:59.404Z,4.70
2018-05-04T02:29:28.377Z,4.60
2018-05-04T02:31:57.355Z,4.60
2018-05-04T02:34:26.561Z,4.50
2018-05-04T02:36:55.489Z,4.50
2018-05-04T02:39:24.451Z,4.50
2018-05-04T02:41:54.876Z,4.40
2018-05-04T02:44:23.814Z,4.40
2018-05-04T02:46:52.799Z,4.40
2018-05-04T02:49:22.046Z,4.40
2018-05-04T02:51:50.964Z,4.30
2018-05-04T02:54:20.440Z,4.30
2018-05-04T02:56:49.717Z,4.30
2018-05-04T02:59:19.878Z,4.20
2018-05-04T03:01:49.206Z,4.20
2018-05-04T03:04:18.492Z,4.10
2018-05-04T03:06:47.971Z,4.10
2018-05-04T03:09:17.416Z,4.00
2018-05-04T03:11:46.410Z,4.00
2018-05-04T03:14:15.730Z,4.00
2018-05-04T03:16:44.898Z,4.00
2018-05-04T03:19:13.778Z,4.00
2018-05-04T03:21:42.659Z,4.00
2018-05-04T03:24:22.129Z,4.00
2018-05-04T03:26:51.023Z,3.90
2018-05-04T03:29:19.962Z,3.90
2018-05-04T03:31:49.365Z,3.90
2018-05-04T03:34:18.297Z,3.90
2018-05-04T03:36:47.528Z,3.80
2018-05-04T03:39:17.475Z,3.80
2018-05-04T03:41:46.383Z,3.70
2018-05-04T03:44:15.272Z,3.70
2018-05-04T03:46:44.634Z,3.70
2018-05-04T03:49:13.952Z,3.70
2018-05-04T03:51:43.859Z,3.70
2018-05-04T03:54:13.050Z,3.70
2018-05-04T03:56:41.984Z,3.70
2018-05-04T04:03:27.385Z,3.60
2018-05-04T04:05:57.606Z,3.60
2018-05-04T04:08:27.509Z,3.50
2018-05-04T04:10:56.434Z,3.50
2018-05-04T04:13:26.410Z,3.50
2018-05-04T04:15:55.342Z,3.50
2018-05-04T04:18:24.232Z,3.60
2018-05-04T04:20:53.948Z,3.60
2018-05-04T04:23:23.658Z,3.60
2018-05-04T04:25:52.558Z,3.60
2018-05-04T04:28:21.747Z,3.70
2018-05-04T04:30:50.822Z,3.70
2018-05-04T04:33:19.721Z,3.70
2018-05-04T04:35:49.001Z,3.90
2018-05-04T04:38:17.923Z,4.00
2018-05-04T04:40:47.675Z,4.20
2018-05-04T04:43:17.697Z,4.30
2018-05-04T04:45:46.763Z,4.30
2018-05-04T04:48:15.711Z,4.50
2018-05-04T04:50:45.005Z,4.60
2018-05-04T04:53:14.103Z,4.70
2018-05-04T04:55:43.831Z,4.90
2018-05-04T04:58:13.403Z,4.80
2018-05-04T05:00:43.111Z,5.10
2018-05-04T05:03:12.055Z,5.10
2018-05-04T05:05:42.018Z,5.30
2018-05-04T05:08:10.949Z,5.30
2018-05-04T05:10:39.830Z,5.50
2018-05-04T05:13:09.045Z,5.60
2018-05-04T05:15:39.082Z,5.80
2018-05-04T05:18:08.743Z,5.90
2018-05-04T05:20:38.000Z,5.90
2018-05-04T05:23:06.918Z,6.10
2018-05-04T05:25:35.816Z,6.20
2018-05-04T05:28:04.808Z,6.30
2018-05-04T05:30:33.756Z,6.40
2018-05-04T05:33:02.964Z,6.50
2018-05-04T05:35:31.913Z,6.60
2018-05-04T05:38:01.630Z,6.90
2018-05-04T05:40:30.897Z,6.90
2018-05-04T05:42:59.824Z,7.10
2018-05-04T05:45:29.526Z,7.20
2018-05-04T05:47:59.642Z,7.30
2018-05-04T05:50:29.589Z,7.30
2018-05-04T05:52:58.548Z,7.40
2018-05-04T05:55:27.746Z,7.60
2018-05-04T05:57:56.690Z,7.70
2018-05-04T06:00:25.943Z,7.80
2018-05-04T06:02:55.171Z,7.90
2018-05-04T06:05:24.138Z,8.00
2018-05-04T06:07:53.841Z,8.30
2018-05-04T06:10:23.039Z,8.30
2018-05-04T06:12:53.111Z,8.50
2018-05-04T06:15:22.033Z,8.50
2018-05-04T06:17:51.310Z,8.60
2018-05-04T06:20:20.247Z,8.80
2018-05-04T06:22:50.334Z,9.00
2018-05-04T06:25:19.810Z,9.00
2018-05-04T06:27:48.751Z,9.20
2018-05-04T06:30:17.822Z,9.20
2018-05-04T06:32:48.061Z,9.30
2018-05-04T06:35:18.144Z,9.50
2018-05-04T06:37:47.042Z,9.50
2018-05-04T06:40:16.436Z,9.60
2018-05-04T06:42:45.350Z,9.70
2018-05-04T06:45:14.275Z,9.70
2018-05-04T06:47:44.043Z,9.90
2018-05-04T06:50:12.945Z,9.80
2018-05-04T06:52:42.154Z,10.00
2018-05-04T06:55:11.307Z,10.10
2018-05-04T06:57:40.224Z,10.20
2018-05-04T07:00:09.152Z,10.30
2018-05-04T07:02:39.568Z,10.50
2018-05-04T07:05:09.229Z,10.60
2018-05-04T07:07:38.186Z,10.60
2018-05-04T07:10:09.252Z,10.80
2018-05-04T07:12:38.278Z,10.80
2018-05-04T07:15:07.408Z,10.90
2018-05-04T07:17:36.606Z,10.90
2018-05-04T07:20:15.302Z,11.10
2018-05-04T07:22:44.767Z,11.10
2018-05-04T07:25:13.896Z,11.20
2018-05-04T07:27:42.816Z,11.30
2018-05-04T07:30:12.783Z,11.50
2018-05-04T07:32:41.744Z,11.50
2018-05-04T07:35:10.651Z,11.60
2018-05-04T07:37:40.009Z,11.70
2018-05-04T07:40:09.777Z,11.80
2018-05-04T07:42:38.718Z,11.80
2018-05-04T07:45:07.959Z,12.00
2018-05-04T07:47:36.850Z,11.90
2018-05-04T07:50:05.772Z,12.00
2018-05-04T07:52:35.030Z,12.10
2018-05-04T07:55:03.986Z,12.20
2018-05-04T07:57:33.951Z,12.60
2018-05-04T08:00:03.188Z,12.30
2018-05-04T08:02:32.880Z,12.40
2018-05-04T08:05:01.800Z,12.40
2018-05-04T08:07:31.870Z,12.70
2018-05-04T08:10:02.034Z,12.80
2018-05-04T08:12:31.863Z,12.70
2018-05-04T08:15:01.184Z,12.80
2018-05-04T08:17:30.156Z,13.00
2018-05-04T08:19:59.301Z,13.00
2018-05-04T08:22:28.538Z,13.10
2018-05-04T08:24:58.273Z,13.40
2018-05-04T08:27:27.327Z,13.40
2018-05-04T08:29:57.326Z,13.50
2018-05-04T08:32:26.344Z,13.90
2018-05-04T08:34:55.342Z,13.50
2018-05-04T08:37:25.451Z,13.70
2018-05-04T08:39:54.504Z,13.70
2018-05-04T08:42:23.487Z,13.80
2018-05-04T08:44:53.479Z,14.00
2018-05-04T08:47:23.230Z,14.00
2018-05-04T08:49:52.964Z,14.10
2018-05-04T08:52:22.232Z,14.10
2018-05-04T08:54:51.154Z,14.10
2018-05-04T08:57:20.861Z,14.30
2018-05-04T08:59:50.079Z,14.40
2018-05-04T09:02:19.799Z,14.50
2018-05-04T09:04:48.758Z,14.60
2018-05-04T09:07:18.773Z,14.50
2018-05-04T09:09:47.691Z,14.60
2018-05-04T09:12:17.490Z,14.70
2018-05-04T09:14:47.464Z,14.90
2018-05-04T09:17:16.436Z,14.80
2018-05-04T09:19:46.420Z,15.00
2018-05-04T09:22:16.112Z,15.10
2018-05-04T09:24:45.053Z,15.20
2018-05-04T09:27:14.165Z,15.30
2018-05-04T09:29:43.407Z,15.40
2018-05-04T09:32:13.115Z,15.50
2018-05-04T09:34:42.865Z,15.70
2018-05-04T09:37:12.714Z,15.60
2018-05-04T09:39:41.778Z,15.80
2018-05-04T09:42:10.887Z,15.80
2018-05-04T09:44:40.260Z,15.90
2018-05-04T09:47:10.351Z,16.10
2018-05-04T09:49:40.125Z,16.10
2018-05-04T09:52:09.478Z,16.10
2018-05-04T09:54:39.165Z,16.20
2018-05-04T09:57:08.915Z,16.20
2018-05-04T09:59:37.931Z,16.20
2018-05-04T10:02:07.889Z,16.30
2018-05-04T10:04:38.003Z,16.50
2018-05-04T10:07:07.001Z,16.40
2018-05-04T10:09:36.947Z,16.60
2018-05-04T10:12:06.293Z,16.60
2018-05-04T10:14:35.252Z,16.60
2018-05-04T10:17:05.149Z,16.60
2018-05-04T10:19:35.272Z,16.80
2018-05-04T10:22:04.186Z,16.80
2018-05-04T10:24:33.112Z,17.00
2018-05-04T10:27:02.355Z,17.00
2018-05-04T10:29:31.305Z,17.10
2018-05-04T10:32:00.304Z,17.20
2018-05-04T10:34:30.382Z,17.10
2018-05-04T10:36:59.364Z,17.10
2018-05-04T10:39:28.349Z,17.20
2018-05-04T10:41:57.815Z,17.30
2018-05-04T10:44:27.547Z,17.40
2018-05-04T10:46:56.470Z,17.50
2018-05-04T10:49:26.687Z,17.50
2018-05-04T10:51:55.613Z,17.50
2018-05-04T10:54:24.561Z,17.50
2018-05-04T10:57:02.635Z,17.60
2018-05-04T10:59:32.473Z,17.70
2018-05-04T11:02:01.435Z,17.60
2018-05-04T11:04:31.924Z,17.90
2018-05-04T11:07:00.947Z,17.80
2018-05-04T11:09:30.719Z,17.90
2018-05-04T11:11:59.947Z,17.90
2018-05-04T11:14:28.917Z,17.90
2018-05-04T11:16:57.856Z,17.90
2018-05-04T11:19:27.152Z,18.00
2018-05-04T11:21:56.847Z,18.20
2018-05-04T11:24:26.573Z,18.30
2018-05-04T11:26:56.669Z,18.40
2018-05-04T11:29:25.607Z,18.30
2018-05-04T11:31:55.302Z,18.40
2018-05-04T11:34:24.514Z,18.40
2018-05-04T11:36:53.484Z,18.50
2018-05-04T11:39:23.443Z,18.70
2018-05-04T11:41:53.545Z,18.70
2018-05-04T11:44:23.190Z,18.70
2018-05-04T11:46:59.872Z,18.70
2018-05-04T11:49:29.154Z,19.10
2018-05-04T11:51:58.123Z,18.80
2018-05-04T11:54:27.050Z,18.90
2018-05-04T11:56:57.072Z,18.90
2018-05-04T11:59:26.022Z,18.80
2018-05-04T12:01:56.625Z,18.90
2018-05-04T12:04:25.924Z,18.90
2018-05-04T12:06:54.937Z,19.00
2018-05-04T12:09:23.867Z,19.00
2018-05-04T12:11:54.020Z,19.10
2018-05-04T12:14:23.735Z,19.30
2018-05-04T12:16:53.457Z,19.40
2018-05-04T12:19:22.712Z,19.30
2018-05-04T12:21:51.598Z,19.40
2018-05-04T12:24:20.550Z,19.40
2018-05-04T12:26:50.568Z,19.70
2018-05-04T12:29:19.476Z,19.50
2018-05-04T12:31:48.493Z,19.60
2018-05-04T12:34:17.684Z,19.80
2018-05-04T12:36:47.372Z,19.90
2018-05-04T12:39:16.306Z,19.80
2018-05-04T12:41:46.287Z,20.00
2018-05-04T12:44:15.269Z,20.00
2018-05-04T12:46:44.196Z,19.90
2018-05-04T12:49:13.439Z,20.00
2018-05-04T12:51:42.345Z,20.10
2018-05-04T12:54:11.256Z,20.30
2018-05-04T12:56:40.449Z,20.30
2018-05-04T12:59:09.362Z,20.30
2018-05-04T13:01:39.152Z,20.30
2018-05-04T13:04:08.350Z,20.40
2018-05-04T13:06:37.270Z,20.30
2018-05-04T13:09:07.589Z,20.30
2018-05-04T13:11:36.828Z,20.30
2018-05-04T13:14:06.896Z,20.30
2018-05-04T13:16:35.829Z,20.40
2018-05-04T13:19:05.067Z,20.50
2018-05-04T21:02:33.311Z,20.60
2018-05-04T21:05:02.700Z,14.10
2018-05-04T21:07:32.525Z,14.00
2018-05-04T21:10:01.558Z,13.90
2018-05-04T21:12:30.775Z,13.90
2018-05-04T21:15:00.556Z,13.80
2018-05-04T21:17:29.680Z,13.80
2018-05-04T21:19:58.876Z,13.60
2018-05-04T21:22:28.643Z,13.50
2018-05-04T21:24:57.627Z,13.50
2018-05-04T21:27:26.881Z,13.20
2018-05-04T21:29:56.786Z,13.00
2018-05-04T21:32:25.822Z,13.00
2018-05-04T21:34:55.848Z,12.70
2018-05-04T21:37:24.794Z,12.70
2018-05-04T21:39:54.481Z,12.50
2018-05-04T21:42:23.679Z,12.60
2018-05-04T21:44:52.597Z,12.50
2018-05-04T21:47:21.575Z,12.40
2018-05-04T21:49:50.781Z,12.20
2018-05-04T21:52:19.772Z,12.30
2018-05-04T21:54:49.241Z,12.40
2018-05-04T21:57:18.483Z,12.20
2018-05-04T21:59:47.439Z,12.20
2018-05-04T22:02:16.530Z,12.10
2018-05-04T22:04:45.810Z,12.00
2018-05-04T22:07:14.770Z,12.00
2018-05-04T22:09:43.780Z,12.10
2018-05-04T22:12:13.794Z,11.50
2018-05-04T22:14:42.801Z,11.70
2018-05-04T22:17:11.826Z,11.70
2018-05-04T22:19:41.048Z,11.70
2018-05-04T22:22:09.983Z,11.70
2018-05-04T22:24:39.004Z,11.80
2018-05-04T22:27:08.255Z,11.70
2018-05-04T22:29:37.202Z,11.80
2018-05-04T22:32:06.146Z,11.80
2018-05-04T22:34:36.157Z,11.30
2018-05-04T22:37:05.846Z,11.50
2018-05-04T22:39:35.559Z,11.20
2018-05-04T22:42:04.783Z,11.40
2018-05-04T22:44:33.700Z,11.30
2018-05-04T22:47:02.631Z,11.40
2018-05-04T22:49:31.874Z,11.20
2018-05-04T22:52:00.761Z,11.20
2018-05-04T22:54:30.420Z,11.10
2018-05-04T22:56:59.753Z,11.00
2018-05-04T22:59:29.434Z,11.00
2018-05-04T23:01:58.330Z,11.00
2018-05-04T23:04:27.532Z,10.90
2018-05-04T23:06:56.552Z,10.90
2018-05-04T23:09:25.456Z,11.00
2018-05-04T23:11:55.460Z,11.00
2018-05-04T23:14:24.366Z,10.90
2018-05-04T23:16:53.319Z,10.90
2018-05-04T23:19:23.295Z,10.70
2018-05-04T23:21:52.274Z,10.70
2018-05-04T23:24:21.203Z,10.80
2018-05-04T23:26:50.386Z,10.60
2018-05-04T23:29:19.350Z,10.50
2018-05-04T23:31:48.311Z,10.40
2018-05-04T23:34:17.269Z,10.50
2018-05-04T23:36:46.200Z,10.40
2018-05-04T23:39:15.437Z,10.50
2018-05-04T23:41:44.406Z,10.70
2018-05-04T23:44:13.343Z,10.70
2018-05-04T23:46:42.534Z,10.70
2018-05-04T23:49:11.430Z,10.60
2018-05-04T23:51:40.334Z,10.60
2018-05-04T23:54:09.607Z,10.50
2018-05-04T23:56:38.600Z,10.60
2018-05-04T23:59:07.560Z,10.60
